createdAt,value
2022-09-04T00:02:43.915Z,19.30
2022-09-04T00:05:19.801Z,19.30
2022-09-04T00:08:05.942Z,19.30
2022-09-04T00:10:43.022Z,19.20
2022-09-04T00:13:22.486Z,19.00
2022-09-04T00:16:04.108Z,19.20
2022-09-04T00:18:45.437Z,19.10
2022-09-04T00:21:26.970Z,19.10
2022-09-04T00:24:08.804Z,19.10
2022-09-04T00:26:44.035Z,19.20
2022-09-04T00:29:21.439Z,18.90
2022-09-04T00:31:56.971Z,18.90
2022-09-04T00:35:01.982Z,19.00
2022-09-04T00:37:39.692Z,18.90
2022-09-04T00:40:16.771Z,18.80
2022-09-04T00:42:46.959Z,19.10
2022-09-04T00:45:41.660Z,18.90
2022-09-04T00:48:08.506Z,18.80
2022-09-04T00:50:55.991Z,18.90
2022-09-04T00:53:37.379Z,18.90
2022-09-04T00:56:38.124Z,18.80
2022-09-04T00:59:16.875Z,19.20
2022-09-04T01:01:45.008Z,19.20
2022-09-04T01:04:57.693Z,19.00
2022-09-04T01:07:56.633Z,19.10
2022-09-04T01:10:33.806Z,19.00
2022-09-04T01:13:13.007Z,18.90
2022-09-04T01:15:50.734Z,19.00
2022-09-04T01:18:48.485Z,18.90
2022-09-04T01:21:30.760Z,18.80
2022-09-04T01:24:30.829Z,18.80
2022-09-04T01:27:29.890Z,18.70
2022-09-04T01:30:08.116Z,18.80
2022-09-04T01:43:22.968Z,18.60
2022-09-04T01:46:26.059Z,18.40
2022-09-04T01:49:03.099Z,18.40
2022-09-04T01:52:01.043Z,18.30
2022-09-04T01:54:52.821Z,18.40
2022-09-04T01:57:34.449Z,18.30
2022-09-04T02:00:15.576Z,18.30
2022-09-04T02:03:03.748Z,18.40
2022-09-04T02:05:48.248Z,18.30
2022-09-04T02:08:52.576Z,18.30
2022-09-04T02:11:27.845Z,18.30
2022-09-04T02:14:14.341Z,18.30
2022-09-04T02:17:08.096Z,18.20
2022-09-04T02:19:47.698Z,18.20
2022-09-04T02:22:26.431Z,18.30
2022-09-04T02:25:02.878Z,18.30
2022-09-04T02:27:48.601Z,18.20
2022-09-04T02:30:19.050Z,18.20
2022-09-04T02:32:49.480Z,18.10
2022-09-04T02:35:25.193Z,18.10
2022-09-04T02:37:57.657Z,18.00
2022-09-04T02:40:30.093Z,18.00
2022-09-04T02:43:14.467Z,18.10
2022-09-04T02:46:00.203Z,18.00
2022-09-04T02:48:57.606Z,18.10
2022-09-04T02:51:59.090Z,18.00
2022-09-04T02:55:03.719Z,18.00
2022-09-04T02:57:56.649Z,17.90
2022-09-04T03:00:55.214Z,18.00
2022-09-04T03:03:29.464Z,17.90
2022-09-04T03:06:09.488Z,17.80
2022-09-04T03:09:07.834Z,17.80
2022-09-04T03:11:41.752Z,17.80
2022-09-04T03:14:18.573Z,17.80
2022-09-04T03:16:58.741Z,17.80
2022-09-04T03:19:42.586Z,17.80
2022-09-04T03:22:15.621Z,17.80
2022-09-04T03:24:58.141Z,17.70
2022-09-04T03:27:26.349Z,17.70
2022-09-04T03:30:09.084Z,17.70
2022-09-04T03:33:02.774Z,17.60
2022-09-04T03:36:03.037Z,17.60
2022-09-04T03:39:04.478Z,17.70
2022-09-04T03:41:54.270Z,17.60
2022-09-04T03:44:48.693Z,17.70
2022-09-04T03:47:41.708Z,17.60
2022-09-04T03:50:17.368Z,17.60
2022-09-04T03:53:28.568Z,17.50
2022-09-04T03:56:01.325Z,17.60
2022-09-04T03:59:02.198Z,17.50
2022-09-04T04:01:52.971Z,17.50
2022-09-04T04:04:44.059Z,17.60
2022-09-04T04:07:22.189Z,17.50
2022-09-04T04:10:06.325Z,17.50
2022-09-04T04:12:44.935Z,17.50
2022-09-04T04:15:17.261Z,17.50
2022-09-04T04:18:04.370Z,17.50
2022-09-04T04:20:52.583Z,17.40
2022-09-04T04:23:50.800Z,17.50
2022-09-04T04:26:21.605Z,17.40
2022-09-04T04:29:15.685Z,17.40
2022-09-04T04:32:11.723Z,17.40
2022-09-04T04:35:10.547Z,17.40
2022-09-04T04:37:51.822Z,17.40
2022-09-04T04:40:21.626Z,17.40
2022-09-04T04:43:08.560Z,17.50
2022-09-04T04:46:02.447Z,17.30
2022-09-04T04:48:53.178Z,17.30
2022-09-04T04:51:49.166Z,17.30
2022-09-04T04:54:46.065Z,17.30
2022-09-04T04:57:18.657Z,17.40
2022-09-04T05:00:11.658Z,17.30
2022-09-04T05:02:54.141Z,17.30
2022-09-04T05:05:41.588Z,17.40
2022-09-04T05:08:36.229Z,17.30
2022-09-04T05:11:13.561Z,17.30
2022-09-04T05:14:06.425Z,17.30
2022-09-04T05:16:51.107Z,17.30
2022-09-04T05:19:32.527Z,17.20
2022-09-04T05:22:18.006Z,17.20
2022-09-04T05:25:07.617Z,17.30
2022-09-04T05:27:58.759Z,17.30
2022-09-04T05:31:02.385Z,17.40
2022-09-04T05:33:55.605Z,17.40
2022-09-04T05:36:43.107Z,17.30
2022-09-04T05:39:32.878Z,17.30
2022-09-04T05:42:14.570Z,17.30
2022-09-04T05:45:01.314Z,17.20
2022-09-04T05:47:55.769Z,17.30
2022-09-04T05:50:46.565Z,17.40
2022-09-04T05:53:25.035Z,17.30
2022-09-04T05:56:07.471Z,17.40
2022-09-04T05:59:01.371Z,17.50
2022-09-04T06:01:55.564Z,17.50
2022-09-04T06:04:45.406Z,17.40
2022-09-04T06:07:17.284Z,17.40
2022-09-04T06:10:03.675Z,17.40
2022-09-04T06:12:48.914Z,17.50
2022-09-04T06:15:52.943Z,17.60
2022-09-04T06:18:40.419Z,17.50
2022-09-04T06:21:15.829Z,17.50
2022-09-04T06:23:57.796Z,17.50
2022-09-04T06:26:27.646Z,17.60
2022-09-04T06:29:15.576Z,17.70
2022-09-04T06:32:13.337Z,17.70
2022-09-04T06:34:46.228Z,17.70
2022-09-04T06:37:48.032Z,17.70
2022-09-04T06:40:32.911Z,17.70
2022-09-04T06:43:32.773Z,17.70
2022-09-04T06:46:38.837Z,17.80
2022-09-04T06:49:14.438Z,17.90
2022-09-04T06:51:52.442Z,17.90
2022-09-04T06:54:57.803Z,18.00
2022-09-04T06:57:48.928Z,18.00
2022-09-04T07:00:18.116Z,18.10
2022-09-04T07:03:12.237Z,18.30
2022-09-04T07:05:58.077Z,18.20
2022-09-04T07:08:43.530Z,18.30
2022-09-04T07:11:10.307Z,18.40
2022-09-04T07:13:48.522Z,18.50
2022-09-04T07:16:24.178Z,18.60
2022-09-04T07:19:07.818Z,18.60
2022-09-04T07:21:40.743Z,18.60
2022-09-04T07:24:46.780Z,18.60
2022-09-04T07:27:52.713Z,18.70
2022-09-04T07:30:20.259Z,18.80
2022-09-04T07:33:03.000Z,18.90
2022-09-04T07:35:59.800Z,19.00
2022-09-04T07:38:35.188Z,19.00
2022-09-04T07:41:17.949Z,19.10
2022-09-04T07:44:05.133Z,19.10
2022-09-04T07:47:05.307Z,19.20
2022-09-04T07:49:37.416Z,19.30
2022-09-04T07:52:42.172Z,19.40
2022-09-04T07:55:26.785Z,19.40
2022-09-04T07:58:11.426Z,19.50
2022-09-04T08:01:12.554Z,19.70
2022-09-04T08:03:54.458Z,19.70
2022-09-04T08:06:24.662Z,19.80
2022-09-04T08:09:09.946Z,19.90
2022-09-04T08:11:45.569Z,20.00
2022-09-04T08:14:21.182Z,20.10
2022-09-04T08:17:28.926Z,20.20
2022-09-04T08:20:20.552Z,20.30
2022-09-04T08:22:53.289Z,20.40
2022-09-04T08:25:30.022Z,20.40
2022-09-04T08:28:06.370Z,20.40
2022-09-04T08:30:48.446Z,20.50
2022-09-04T08:33:23.745Z,20.60
2022-09-04T08:36:25.510Z,20.70
2022-09-04T08:39:30.506Z,20.80
2022-09-04T08:42:19.016Z,20.80
2022-09-04T08:45:23.074Z,20.90
2022-09-04T08:48:23.437Z,20.90
2022-09-04T08:51:20.164Z,21.10
2022-09-04T08:54:14.382Z,21.10
2022-09-04T08:56:59.583Z,21.30
2022-09-04T09:00:07.155Z,21.30
2022-09-04T09:03:11.452Z,21.50
2022-09-04T09:06:09.343Z,21.60
2022-09-04T09:08:36.182Z,21.60
2022-09-04T09:11:23.785Z,21.60
2022-09-04T09:14:02.481Z,21.90
2022-09-04T09:17:00.215Z,22.10
2022-09-04T09:19:37.508Z,22.10
2022-09-04T09:22:22.367Z,22.30
2022-09-04T09:25:21.223Z,22.30
2022-09-04T09:28:09.844Z,22.50
2022-09-04T09:31:15.053Z,22.60
2022-09-04T09:33:53.837Z,22.70
2022-09-04T09:36:45.166Z,22.60
2022-09-04T09:39:30.685Z,22.90
2022-09-04T09:42:16.984Z,22.90
2022-09-04T09:45:03.020Z,23.10
2022-09-04T09:48:08.680Z,23.20
2022-09-04T09:50:46.622Z,23.30
2022-09-04T09:53:35.145Z,23.20
2022-09-04T09:56:38.332Z,23.60
2022-09-04T09:59:32.295Z,23.70
2022-09-04T10:02:22.177Z,23.40
2022-09-04T10:05:00.573Z,23.70
2022-09-04T10:07:30.140Z,23.90
2022-09-04T10:10:28.717Z,23.80
2022-09-04T10:13:23.099Z,23.90
2022-09-04T10:16:08.819Z,23.70
2022-09-04T10:18:54.561Z,23.90
2022-09-04T10:21:55.191Z,24.00
2022-09-04T10:24:40.640Z,24.30
2022-09-04T10:27:19.508Z,24.60
2022-09-04T10:30:22.666Z,24.60
2022-09-04T10:33:20.451Z,24.60
2022-09-04T10:38:29.028Z,25.20
2022-09-04T10:41:20.434Z,25.60
2022-09-04T10:44:08.801Z,26.10
2022-09-04T10:47:10.634Z,26.10
2022-09-04T10:50:29.548Z,26.40
2022-09-04T10:53:38.852Z,26.30
2022-09-04T10:56:30.104Z,26.40
2022-09-04T10:59:10.287Z,26.80
2022-09-04T11:01:58.734Z,26.50
2022-09-04T11:05:19.375Z,27.00
2022-09-04T11:10:30.490Z,27.50
2022-09-04T11:12:57.198Z,27.60
2022-09-04T11:15:48.012Z,27.30
2022-09-04T11:18:43.333Z,26.70
2022-09-04T11:21:49.470Z,26.20
2022-09-04T11:24:38.127Z,26.80
2022-09-04T11:27:44.901Z,27.40
2022-09-04T11:30:17.901Z,27.50
2022-09-04T11:33:08.818Z,28.20
2022-09-04T11:36:06.850Z,28.10
2022-09-04T11:39:08.606Z,27.60
2022-09-04T11:41:47.415Z,27.80
2022-09-04T11:44:38.223Z,28.30
2022-09-04T11:47:43.117Z,28.60
2022-09-04T11:50:24.251Z,28.60
2022-09-04T11:52:51.642Z,28.40
2022-09-04T11:56:05.930Z,28.10
2022-09-04T11:58:56.010Z,28.10
2022-09-04T12:01:32.051Z,28.60
2022-09-04T12:04:04.432Z,29.90
2022-09-04T12:07:00.021Z,29.90
2022-09-04T12:09:53.284Z,29.30
2022-09-04T12:12:38.026Z,28.70
2022-09-04T12:15:08.644Z,28.00
2022-09-04T12:17:49.200Z,27.90
2022-09-04T12:20:27.781Z,27.50
2022-09-04T12:23:10.654Z,27.50
2022-09-04T12:26:08.526Z,28.10
2022-09-04T12:28:52.521Z,28.80
2022-09-04T12:31:34.148Z,29.10
2022-09-04T12:34:04.350Z,30.00
2022-09-04T12:36:33.161Z,30.80
2022-09-04T12:39:17.764Z,30.10
2022-09-04T12:42:04.372Z,29.30
2022-09-04T12:44:53.152Z,28.70
2022-09-04T12:47:41.963Z,29.10
2022-09-04T12:50:19.427Z,28.80
2022-09-04T12:52:46.116Z,28.30
2022-09-04T12:55:19.293Z,28.20
2022-09-04T12:58:13.076Z,28.00
2022-09-04T13:00:49.745Z,28.00
2022-09-04T13:03:22.559Z,27.30
2022-09-04T13:05:53.240Z,27.20
2022-09-04T13:08:45.086Z,27.10
2022-09-04T13:11:24.233Z,27.30
2022-09-04T13:17:01.575Z,27.70
2022-09-04T13:19:36.120Z,28.80
2022-09-04T13:22:12.083Z,30.00
2022-09-04T13:25:04.389Z,30.20
2022-09-04T13:27:49.997Z,29.00
2022-09-04T13:30:24.315Z,28.60
2022-09-04T13:33:26.175Z,28.30
2022-09-04T13:36:09.136Z,28.20
2022-09-04T13:38:42.027Z,28.00
2022-09-04T13:41:30.502Z,27.80
2022-09-04T13:44:04.228Z,27.90
2022-09-04T13:47:00.209Z,28.60
2022-09-04T13:49:42.805Z,29.40
2022-09-04T13:52:33.785Z,29.40
2022-09-04T13:55:09.846Z,29.50
2022-09-04T13:57:42.701Z,29.50
2022-09-04T14:00:11.999Z,29.50
2022-09-04T14:02:39.287Z,29.90
2022-09-04T14:05:23.170Z,29.60
2022-09-04T14:07:59.197Z,29.60
2022-09-04T14:10:40.845Z,30.80
2022-09-04T14:13:25.719Z,30.60
2022-09-04T14:16:01.881Z,30.40
2022-09-04T14:18:58.165Z,30.70
2022-09-04T14:21:24.916Z,29.80
2022-09-04T14:24:09.785Z,29.30
2022-09-04T14:26:51.149Z,29.40
2022-09-04T14:29:38.539Z,29.10
2022-09-04T14:32:18.639Z,29.20
2022-09-04T14:35:12.764Z,29.60
2022-09-04T14:37:40.372Z,29.20
2022-09-04T14:40:38.988Z,28.90
2022-09-04T14:43:48.451Z,28.80
2022-09-04T14:46:29.799Z,28.60
2022-09-04T14:49:04.651Z,29.80
2022-09-04T14:51:39.740Z,29.80
2022-09-04T14:54:09.132Z,29.70
2022-09-04T14:56:47.890Z,30.50
2022-09-04T14:59:42.506Z,30.50
2022-09-04T15:02:09.330Z,30.70
2022-09-04T15:04:53.827Z,30.10
2022-09-04T15:07:43.683Z,29.80
2022-09-04T15:10:26.672Z,30.00
2022-09-04T15:12:55.716Z,30.00
2022-09-04T15:15:33.101Z,30.10
2022-09-04T15:18:25.627Z,30.20
2022-09-04T15:21:08.003Z,29.70
2022-09-04T15:23:49.906Z,29.70
2022-09-04T15:26:36.957Z,30.20
2022-09-04T15:29:17.400Z,30.20
2022-09-04T15:31:44.549Z,30.20
2022-09-04T15:34:20.318Z,30.30
2022-09-04T15:36:48.383Z,30.00
2022-09-04T15:39:31.974Z,29.40
2022-09-04T15:42:00.054Z,29.30
2022-09-04T15:44:44.254Z,28.90
2022-09-04T15:48:06.157Z,29.70
2022-09-04T15:50:39.223Z,29.90
2022-09-04T15:53:15.952Z,29.20
2022-09-04T15:55:46.946Z,29.20
2022-09-04T15:58:33.112Z,28.70
2022-09-04T16:01:09.255Z,28.80
2022-09-04T16:04:00.083Z,29.30
2022-09-04T16:06:54.900Z,29.00
2022-09-04T16:09:39.928Z,28.90
2022-09-04T16:12:12.961Z,28.90
2022-09-04T16:14:48.639Z,28.60
2022-09-04T16:17:25.320Z,29.10
2022-09-04T16:20:00.624Z,28.70
2022-09-04T16:23:03.879Z,28.80
2022-09-04T16:25:38.093Z,28.60
2022-09-04T16:28:19.081Z,28.80
2022-09-04T16:31:06.479Z,28.80
2022-09-04T16:33:38.049Z,28.70
2022-09-04T16:36:08.810Z,28.90
2022-09-04T16:38:57.210Z,28.70
2022-09-04T16:41:31.536Z,28.80
2022-09-04T16:44:16.813Z,28.70
2022-09-04T16:47:06.086Z,28.60
2022-09-04T16:50:01.978Z,28.60
2022-09-04T16:52:40.738Z,28.60
2022-09-04T16:55:22.122Z,28.40
2022-09-04T16:58:18.845Z,28.40
2022-09-04T17:01:13.776Z,28.30
2022-09-04T17:04:04.166Z,28.10
2022-09-04T17:07:00.101Z,28.20
2022-09-04T17:09:48.850Z,28.00
2022-09-04T17:12:21.504Z,27.90
2022-09-04T17:17:31.518Z,27.70
2022-09-04T17:20:07.795Z,27.90
2022-09-04T17:29:05.065Z,27.90
2022-09-04T17:29:16.403Z,27.80
2022-09-04T17:29:34.604Z,27.70
2022-09-04T17:32:00.579Z,27.40
2022-09-04T17:39:57.363Z,27.50
2022-09-04T17:40:47.892Z,27.50
2022-09-04T17:41:31.239Z,27.40
2022-09-04T17:43:40.517Z,27.30
2022-09-04T17:46:32.283Z,27.20
2022-09-04T17:48:59.879Z,27.10
2022-09-04T17:51:34.803Z,27.10
2022-09-04T17:54:10.054Z,27.00
